createdAt,value
2017-07-15T00:01:25.514Z,99.90
2017-07-15T00:03:53.026Z,99.90
2017-07-15T00:06:20.820Z,99.90
2017-07-15T00:08:48.322Z,99.90
2017-07-15T00:11:15.835Z,99.90
2017-07-15T00:13:43.352Z,99.90
2017-07-15T00:16:10.864Z,99.90
2017-07-15T00:18:38.661Z,99.90
2017-07-15T00:21:06.164Z,99.90
2017-07-15T00:23:33.682Z,99.90
2017-07-15T00:26:01.185Z,99.90
2017-07-15T00:28:28.698Z,99.90
2017-07-15T00:30:56.503Z,99.90
2017-07-15T00:33:24.005Z,99.90
2017-07-15T00:35:51.604Z,99.90
2017-07-15T00:38:19.127Z,99.90
2017-07-15T00:40:46.621Z,99.90
2017-07-15T00:43:14.428Z,99.90
2017-07-15T00:45:41.957Z,99.90
2017-07-15T00:48:09.463Z,99.90
2017-07-15T00:50:36.986Z,99.90
2017-07-15T00:53:04.488Z,99.90
2017-07-15T00:55:32.295Z,99.90
2017-07-15T00:57:59.804Z,99.90
2017-07-15T01:00:27.305Z,99.90
2017-07-15T01:02:54.946Z,99.90
2017-07-15T01:05:22.454Z,99.90
2017-07-15T01:07:50.244Z,99.90
2017-07-15T01:10:17.744Z,99.90
2017-07-15T01:12:45.247Z,99.90
2017-07-15T01:15:12.780Z,99.90
2017-07-15T01:17:40.325Z,99.90
2017-07-15T01:20:08.225Z,99.90
2017-07-15T01:22:35.728Z,99.90
2017-07-15T01:25:04.025Z,99.90
2017-07-15T01:27:31.548Z,99.90
2017-07-15T01:29:59.057Z,99.90
2017-07-15T01:32:26.828Z,99.90
2017-07-15T01:34:54.341Z,99.90
2017-07-15T01:37:22.079Z,99.90
2017-07-15T01:39:49.593Z,99.90
2017-07-15T01:42:17.087Z,99.90
2017-07-15T01:44:44.890Z,99.90
2017-07-15T01:47:12.397Z,99.90
2017-07-15T01:49:39.955Z,99.90
2017-07-15T01:52:07.481Z,99.90
2017-07-15T01:54:34.992Z,99.90
2017-07-15T01:57:02.777Z,99.90
2017-07-15T01:59:30.297Z,99.90
2017-07-15T02:01:57.846Z,99.90
2017-07-15T02:04:25.664Z,99.90
2017-07-15T02:06:53.364Z,99.90
2017-07-15T02:09:21.163Z,99.90
2017-07-15T02:11:48.678Z,99.90
2017-07-15T02:14:16.201Z,99.90
2017-07-15T02:16:43.927Z,99.90
2017-07-15T02:19:11.434Z,99.90
2017-07-15T02:21:39.205Z,99.90
2017-07-15T02:24:06.714Z,99.90
2017-07-15T02:26:34.217Z,99.90
2017-07-15T02:29:01.738Z,99.90
2017-07-15T02:31:29.351Z,99.90
2017-07-15T02:33:57.146Z,99.90
2017-07-15T02:36:24.654Z,99.90
2017-07-15T02:38:52.162Z,99.90
2017-07-15T02:41:19.743Z,99.90
2017-07-15T02:43:47.335Z,99.90
2017-07-15T02:46:15.110Z,99.90
2017-07-15T02:48:42.795Z,99.90
2017-07-15T02:51:10.306Z,99.90
2017-07-15T02:53:37.826Z,99.90
2017-07-15T02:56:05.336Z,99.90
2017-07-15T02:58:33.118Z,99.90
2017-07-15T03:01:01.011Z,99.90
2017-07-15T03:03:28.516Z,99.90
2017-07-15T03:05:56.125Z,99.90
2017-07-15T03:08:23.620Z,99.90
2017-07-15T03:10:51.413Z,99.90
2017-07-15T03:13:18.921Z,99.90
2017-07-15T03:15:46.423Z,99.90
2017-07-15T03:18:14.016Z,99.90
2017-07-15T03:20:41.519Z,99.90
2017-07-15T03:23:09.317Z,99.90
2017-07-15T03:25:36.848Z,99.90
2017-07-15T03:28:04.366Z,99.90
2017-07-15T03:30:32.021Z,99.90
2017-07-15T03:32:59.535Z,99.90
2017-07-15T03:35:27.371Z,99.90
2017-07-15T03:37:54.895Z,99.90
2017-07-15T03:40:22.410Z,99.90
2017-07-15T03:42:49.961Z,99.90
2017-07-15T03:45:17.567Z,99.90
2017-07-15T03:47:45.343Z,99.90
2017-07-15T03:50:12.957Z,99.90
2017-07-15T03:52:40.458Z,99.90
2017-07-15T03:55:07.986Z,99.90
2017-07-15T03:57:35.493Z,99.90
2017-07-15T04:00:03.278Z,99.90
2017-07-15T04:02:30.772Z,99.90
2017-07-15T04:04:58.288Z,99.90
2017-07-15T04:07:25.810Z,99.90
2017-07-15T04:09:53.303Z,99.90
2017-07-15T04:12:21.073Z,99.90
2017-07-15T04:14:48.593Z,99.90
2017-07-15T04:17:16.097Z,99.90
2017-07-15T04:19:43.645Z,99.90
2017-07-15T04:22:11.157Z,99.90
2017-07-15T04:24:38.929Z,99.90
2017-07-15T04:27:06.427Z,99.90
2017-07-15T04:29:33.921Z,99.90
2017-07-15T04:32:01.437Z,99.90
2017-07-15T04:34:28.940Z,99.90
2017-07-15T04:36:56.722Z,99.90
2017-07-15T04:39:24.231Z,99.90
2017-07-15T04:41:52.300Z,99.90
2017-07-15T04:44:19.840Z,99.90
2017-07-15T04:46:47.358Z,99.90
2017-07-15T04:49:15.146Z,99.90
2017-07-15T04:51:42.660Z,99.90
2017-07-15T04:54:10.172Z,99.90
2017-07-15T04:56:37.702Z,99.90
2017-07-15T04:59:05.239Z,99.90
2017-07-15T05:01:33.031Z,99.90
2017-07-15T05:04:00.550Z,99.90
2017-07-15T05:06:28.059Z,99.90
2017-07-15T05:08:55.581Z,99.90
2017-07-15T05:11:23.079Z,99.90
2017-07-15T05:13:50.856Z,99.90
2017-07-15T05:16:18.359Z,99.90
2017-07-15T05:18:45.869Z,99.90
2017-07-15T05:21:13.394Z,99.90
2017-07-15T05:23:40.894Z,99.90
2017-07-15T05:26:08.420Z,99.90
2017-07-15T05:28:36.200Z,99.90
2017-07-15T05:31:03.727Z,99.90
2017-07-15T05:33:31.239Z,99.90
2017-07-15T05:35:59.032Z,99.90
2017-07-15T05:38:26.552Z,99.90
2017-07-15T05:40:54.079Z,99.90
2017-07-15T05:43:21.601Z,99.90
2017-07-15T05:45:49.132Z,99.90
2017-07-15T05:48:16.914Z,99.90
2017-07-15T05:50:44.417Z,99.90
2017-07-15T05:53:11.924Z,99.90
2017-07-15T05:55:39.441Z,99.90
2017-07-15T05:58:07.051Z,99.90
2017-07-15T06:00:34.846Z,99.90
2017-07-15T06:03:02.372Z,99.90
2017-07-15T06:05:30.686Z,99.90
2017-07-15T06:07:58.214Z,99.90
2017-07-15T06:10:25.734Z,99.90
2017-07-15T06:12:53.514Z,99.90
2017-07-15T06:15:21.034Z,99.90
2017-07-15T06:17:48.532Z,99.90
2017-07-15T06:20:16.212Z,99.90
2017-07-15T06:22:43.730Z,99.90
2017-07-15T06:25:11.534Z,99.90
2017-07-15T06:27:39.041Z,99.90
2017-07-15T06:30:06.543Z,99.90
2017-07-15T06:32:34.053Z,99.90
2017-07-15T06:35:01.570Z,99.90
2017-07-15T06:37:29.350Z,99.90
2017-07-15T06:39:56.877Z,99.90
2017-07-15T06:42:24.393Z,99.90
2017-07-15T06:44:51.897Z,99.90
2017-07-15T06:47:19.418Z,99.90
2017-07-15T06:49:47.206Z,99.90
2017-07-15T06:52:14.738Z,99.90
2017-07-15T06:54:42.243Z,99.90
2017-07-15T06:57:09.759Z,99.90
2017-07-15T06:59:37.269Z,99.90
2017-07-15T07:02:05.061Z,99.90
2017-07-15T07:04:32.718Z,99.90
2017-07-15T07:07:00.222Z,99.90
2017-07-15T07:09:27.743Z,99.90
2017-07-15T07:11:55.254Z,99.90
2017-07-15T07:14:23.026Z,99.90
2017-07-15T07:16:50.542Z,99.90
2017-07-15T07:19:18.062Z,99.90
2017-07-15T07:21:45.810Z,99.90
2017-07-15T07:24:14.965Z,99.90
2017-07-15T07:26:42.733Z,99.90
2017-07-15T07:29:10.229Z,99.90
2017-07-15T07:31:37.755Z,99.90
2017-07-15T07:34:05.280Z,99.90
2017-07-15T07:36:32.831Z,99.90
2017-07-15T07:39:00.641Z,99.90
2017-07-15T07:41:28.144Z,99.90
2017-07-15T07:43:55.647Z,99.90
2017-07-15T07:46:23.228Z,99.90
2017-07-15T07:48:50.742Z,99.90
2017-07-15T07:51:18.523Z,99.90
2017-07-15T07:53:46.016Z,99.90
2017-07-15T07:56:13.587Z,99.90
2017-07-15T07:58:41.103Z,99.90
2017-07-15T08:01:08.616Z,99.90
2017-07-15T08:03:36.419Z,99.90
2017-07-15T08:06:03.923Z,99.60
2017-07-15T08:08:31.444Z,99.20
2017-07-15T08:10:58.958Z,98.50
2017-07-15T08:13:26.468Z,98.40
2017-07-15T08:15:54.265Z,98.50
2017-07-15T08:18:21.761Z,97.60
2017-07-15T08:20:49.288Z,97.40
2017-07-15T08:23:16.813Z,98.70
2017-07-15T08:25:44.313Z,97.20
2017-07-15T08:28:12.104Z,96.70
2017-07-15T08:30:39.622Z,96.90
2017-07-15T08:33:07.118Z,97.00
2017-07-15T08:35:34.629Z,97.40
2017-07-15T08:38:03.279Z,96.70
2017-07-15T08:40:31.060Z,96.70
2017-07-15T08:42:58.584Z,96.80
2017-07-15T08:45:26.091Z,96.20
2017-07-15T08:47:53.636Z,96.00
2017-07-15T08:50:21.139Z,95.00
2017-07-15T08:52:49.483Z,95.00
2017-07-15T08:55:19.773Z,97.20
2017-07-15T08:57:47.300Z,95.40
2017-07-15T09:00:14.816Z,95.30
2017-07-15T09:02:42.327Z,91.10
2017-07-15T09:05:10.091Z,91.30
2017-07-15T09:07:37.605Z,90.70
2017-07-15T09:10:06.019Z,91.80
2017-07-15T09:12:33.533Z,95.10
2017-07-15T09:15:01.059Z,90.30
2017-07-15T09:17:28.846Z,88.40
2017-07-15T09:19:56.368Z,89.20
2017-07-15T09:22:24.170Z,90.40
2017-07-15T09:24:51.700Z,94.50
2017-07-15T09:27:19.212Z,90.50
2017-07-15T09:29:47.000Z,89.10
2017-07-15T09:32:14.521Z,86.00
2017-07-15T09:34:42.017Z,85.20
2017-07-15T09:37:09.555Z,85.90
2017-07-15T09:39:37.069Z,84.40
2017-07-15T09:42:04.845Z,82.80
2017-07-15T09:44:32.342Z,82.00
2017-07-15T09:46:59.852Z,85.80
2017-07-15T09:49:27.374Z,80.80
2017-07-15T09:51:54.882Z,80.00
2017-07-15T09:54:22.665Z,85.20
2017-07-15T09:56:50.198Z,88.00
2017-07-15T09:59:17.706Z,85.70
2017-07-15T10:01:45.232Z,86.60
2017-07-15T10:04:12.726Z,87.60
2017-07-15T10:06:40.508Z,81.60
2017-07-15T10:09:08.010Z,78.50
2017-07-15T10:11:35.527Z,81.40
2017-07-15T10:14:03.069Z,86.50
2017-07-15T10:16:30.564Z,79.40
2017-07-15T10:18:58.330Z,78.50
2017-07-15T10:21:25.839Z,78.60
2017-07-15T10:23:53.344Z,77.80
2017-07-15T10:26:20.855Z,83.00
2017-07-15T10:28:48.365Z,77.10
2017-07-15T10:31:16.157Z,80.00
2017-07-15T10:33:43.675Z,80.70
2017-07-15T10:36:11.250Z,82.70
2017-07-15T10:38:38.779Z,81.50
2017-07-15T10:41:06.278Z,81.50
2017-07-15T10:43:34.077Z,83.00
2017-07-15T10:46:01.588Z,82.60
2017-07-15T10:48:29.112Z,87.80
2017-07-15T10:50:56.697Z,91.50
2017-07-15T10:53:24.207Z,92.30
2017-07-15T10:55:51.998Z,91.30
2017-07-15T10:58:19.494Z,91.40
2017-07-15T11:00:47.015Z,90.80
2017-07-15T11:03:14.534Z,91.00
2017-07-15T11:05:42.038Z,92.00
2017-07-15T11:08:09.891Z,92.30
2017-07-15T11:10:37.533Z,92.10
2017-07-15T11:13:05.064Z,92.70
2017-07-15T11:15:32.608Z,92.90
2017-07-15T11:18:00.122Z,92.10
2017-07-15T11:20:27.905Z,92.50
2017-07-15T11:22:55.443Z,91.70
2017-07-15T11:25:22.942Z,92.80
2017-07-15T11:27:50.636Z,93.30
2017-07-15T11:30:18.163Z,91.60
2017-07-15T11:32:45.664Z,91.90
2017-07-15T11:35:13.444Z,92.30
2017-07-15T11:37:40.964Z,92.10
2017-07-15T11:40:08.461Z,93.50
2017-07-15T11:42:35.964Z,91.90
2017-07-15T11:45:04.261Z,91.60
2017-07-15T11:47:32.059Z,90.90
2017-07-15T11:49:59.658Z,91.50
2017-07-15T11:52:27.163Z,92.10
2017-07-15T11:54:54.730Z,93.00
2017-07-15T11:57:22.224Z,93.70
2017-07-15T11:59:49.990Z,93.40
2017-07-15T12:02:17.492Z,93.20
2017-07-15T12:04:45.008Z,93.90
2017-07-15T12:07:12.535Z,94.00
2017-07-15T12:09:40.246Z,92.60
2017-07-15T12:12:08.160Z,91.40
2017-07-15T12:14:35.680Z,91.00
2017-07-15T12:17:03.183Z,91.20
2017-07-15T12:19:30.709Z,90.90
2017-07-15T12:21:58.215Z,87.70
2017-07-15T12:24:25.989Z,89.10
2017-07-15T12:26:53.507Z,90.10
2017-07-15T12:29:21.014Z,89.40
2017-07-15T12:31:48.548Z,86.40
2017-07-15T12:34:16.067Z,85.90
2017-07-15T12:36:43.833Z,86.30
2017-07-15T12:39:11.325Z,89.90
2017-07-15T12:41:38.817Z,89.80
2017-07-15T12:44:06.328Z,90.20
2017-07-15T12:46:33.858Z,90.20
2017-07-15T12:49:01.639Z,89.60
2017-07-15T12:51:29.173Z,91.20
2017-07-15T12:53:56.670Z,91.00
2017-07-15T12:56:24.191Z,91.20
2017-07-15T12:58:51.694Z,91.30
2017-07-15T13:01:19.475Z,90.80
2017-07-15T13:03:47.010Z,91.30
2017-07-15T13:06:14.531Z,91.60
2017-07-15T13:08:42.891Z,90.20
2017-07-15T13:11:10.413Z,89.60
2017-07-15T13:13:38.189Z,88.50
2017-07-15T13:16:05.929Z,89.60
2017-07-15T13:18:33.444Z,89.80
2017-07-15T13:21:01.849Z,90.40
2017-07-15T13:23:29.352Z,90.60
2017-07-15T13:25:57.138Z,90.60
2017-07-15T13:28:24.651Z,89.70
2017-07-15T13:30:52.141Z,90.30
2017-07-15T13:33:19.662Z,89.50
2017-07-15T13:35:47.215Z,90.50
2017-07-15T13:38:15.083Z,90.40
2017-07-15T13:40:43.507Z,90.00
2017-07-15T13:43:11.010Z,88.30
2017-07-15T13:45:38.552Z,86.80
2017-07-15T13:48:06.050Z,88.60
2017-07-15T13:50:33.831Z,87.20
2017-07-15T13:53:01.337Z,82.90
2017-07-15T13:55:29.007Z,84.40
2017-07-15T13:57:56.517Z,81.70
2017-07-15T14:00:24.023Z,82.30
2017-07-15T14:02:51.794Z,78.80
2017-07-15T14:05:19.299Z,80.90
2017-07-15T14:07:46.818Z,83.20
2017-07-15T14:10:14.342Z,82.80
2017-07-15T14:12:41.865Z,85.20
2017-07-15T14:15:09.630Z,84.30
2017-07-15T14:17:37.132Z,85.60
2017-07-15T14:20:04.634Z,86.10
2017-07-15T14:22:32.149Z,87.20
2017-07-15T14:24:59.809Z,89.00
2017-07-15T14:27:28.190Z,89.70
2017-07-15T14:29:55.679Z,89.60
2017-07-15T14:32:23.188Z,90.00
2017-07-15T14:34:50.719Z,90.30
2017-07-15T14:37:25.130Z,87.20
2017-07-15T14:39:52.901Z,90.10
2017-07-15T14:42:20.397Z,89.00
2017-07-15T14:44:48.143Z,89.20
2017-07-15T14:47:15.661Z,86.40
2017-07-15T14:49:43.174Z,85.80
2017-07-15T14:52:10.966Z,85.70
2017-07-15T14:54:38.469Z,85.10
2017-07-15T14:57:05.982Z,84.00
2017-07-15T14:59:35.490Z,79.50
2017-07-15T15:02:02.994Z,81.90
2017-07-15T15:04:30.775Z,80.80
2017-07-15T15:07:02.493Z,82.60
2017-07-15T15:09:33.510Z,85.00
2017-07-15T15:12:03.499Z,84.90
2017-07-15T15:14:31.003Z,85.60
2017-07-15T15:17:04.566Z,84.00
2017-07-15T15:19:35.432Z,86.50
2017-07-15T15:22:03.227Z,85.60
2017-07-15T15:24:30.726Z,85.00
2017-07-15T15:26:58.616Z,84.00
2017-07-15T15:29:26.141Z,84.00
2017-07-15T15:31:53.642Z,85.80
2017-07-15T15:34:21.423Z,84.40
2017-07-15T15:36:49.078Z,85.20
2017-07-15T15:39:16.599Z,82.00
2017-07-15T15:41:44.138Z,84.30
2017-07-15T15:44:11.641Z,85.90
2017-07-15T15:46:39.436Z,86.00
2017-07-15T15:49:06.981Z,86.90
2017-07-15T15:51:34.483Z,88.50
2017-07-15T15:54:02.192Z,87.40
2017-07-15T15:56:29.855Z,87.30
2017-07-15T15:58:57.668Z,86.60
2017-07-15T16:01:25.157Z,86.60
2017-07-15T16:03:52.843Z,86.60
2017-07-15T16:06:20.401Z,86.50
2017-07-15T16:08:47.916Z,87.90
2017-07-15T16:11:15.843Z,85.90
2017-07-15T16:13:43.370Z,86.80
2017-07-15T16:16:10.888Z,86.10
2017-07-15T16:18:38.424Z,88.70
2017-07-15T16:21:06.033Z,90.20
2017-07-15T16:23:33.799Z,88.70
2017-07-15T16:26:01.460Z,89.20
2017-07-15T16:28:29.127Z,90.10
2017-07-15T16:30:56.682Z,90.50
2017-07-15T16:33:24.344Z,90.20
2017-07-15T16:35:52.123Z,90.40
2017-07-15T16:38:19.641Z,90.80
2017-07-15T16:40:47.306Z,91.10
2017-07-15T16:43:15.041Z,91.30
2017-07-15T16:45:42.563Z,91.40
2017-07-15T16:48:10.345Z,91.20
2017-07-15T16:50:37.863Z,91.80
2017-07-15T16:53:05.555Z,91.80
2017-07-15T16:55:33.099Z,92.40
2017-07-15T16:58:00.601Z,91.70
2017-07-15T17:00:28.360Z,92.50
2017-07-15T17:02:55.890Z,92.30
2017-07-15T17:05:23.527Z,92.50
2017-07-15T17:07:51.251Z,92.80
2017-07-15T17:10:18.742Z,93.10
2017-07-15T17:12:46.669Z,93.60
2017-07-15T17:15:14.182Z,93.50
2017-07-15T17:17:41.709Z,94.00
2017-07-15T17:20:09.228Z,94.00
2017-07-15T17:22:36.757Z,94.30
2017-07-15T17:25:04.543Z,95.20
2017-07-15T17:27:32.064Z,95.30
2017-07-15T17:29:59.689Z,95.00
2017-07-15T17:32:27.360Z,95.30
2017-07-15T17:34:54.962Z,95.60
2017-07-15T17:37:22.768Z,96.30
2017-07-15T17:39:50.266Z,96.60
2017-07-15T17:42:17.921Z,96.60
2017-07-15T17:44:45.438Z,97.40
2017-07-15T17:47:12.945Z,96.90
2017-07-15T17:49:40.468Z,96.80
2017-07-15T17:52:08.373Z,97.20
2017-07-15T17:54:36.052Z,98.00
2017-07-15T17:57:03.725Z,98.80
2017-07-15T17:59:31.520Z,99.20
2017-07-15T18:01:59.270Z,99.60
2017-07-15T18:04:26.776Z,99.90
2017-07-15T18:06:54.556Z,99.90
2017-07-15T18:09:22.083Z,99.90
2017-07-15T18:11:49.761Z,99.90
2017-07-15T18:14:17.287Z,99.90
2017-07-15T18:16:44.785Z,99.90
2017-07-15T18:19:12.559Z,99.90
2017-07-15T18:21:40.082Z,99.90
2017-07-15T18:24:07.738Z,99.90
2017-07-15T18:26:35.264Z,99.90
2017-07-15T18:29:02.849Z,99.90
2017-07-15T18:31:30.637Z,99.90
2017-07-15T18:33:58.153Z,99.90
2017-07-15T18:36:25.663Z,99.90
2017-07-15T18:38:53.195Z,99.90
2017-07-15T18:41:20.715Z,99.90
2017-07-15T18:43:48.509Z,99.90
2017-07-15T18:46:16.157Z,99.90
2017-07-15T18:48:43.670Z,99.90
2017-07-15T18:51:11.203Z,99.90
2017-07-15T18:53:38.719Z,99.90
2017-07-15T18:56:06.516Z,99.90
2017-07-15T18:58:34.041Z,99.90
2017-07-15T19:01:01.746Z,99.90
2017-07-15T19:03:29.260Z,99.90
2017-07-15T19:05:56.756Z,99.90
2017-07-15T19:08:24.543Z,99.90
2017-07-15T19:10:52.054Z,99.90
2017-07-15T19:13:19.550Z,99.90
2017-07-15T19:15:47.243Z,99.90
2017-07-15T19:18:14.749Z,99.90
2017-07-15T19:20:42.565Z,99.90
2017-07-15T19:23:10.224Z,99.90
2017-07-15T19:25:37.722Z,99.90
2017-07-15T19:28:05.242Z,99.90
2017-07-15T19:30:34.538Z,99.90
2017-07-15T19:33:02.328Z,99.90
2017-07-15T19:35:30.024Z,99.90
2017-07-15T19:37:57.545Z,99.90
2017-07-15T19:40:25.062Z,99.90
2017-07-15T19:42:52.575Z,99.90
2017-07-15T19:45:21.294Z,99.90
2017-07-15T19:47:48.820Z,99.90
2017-07-15T19:50:16.334Z,99.90
2017-07-15T19:52:43.869Z,99.90
2017-07-15T19:55:11.385Z,99.90
2017-07-15T19:57:39.395Z,99.90
2017-07-15T20:00:06.908Z,99.90
2017-07-15T20:02:34.600Z,99.90
2017-07-15T20:05:02.169Z,99.90
2017-07-15T20:07:29.673Z,99.90
2017-07-15T20:09:57.458Z,99.90
2017-07-15T20:12:24.974Z,99.90
2017-07-15T20:14:52.492Z,99.90
2017-07-15T20:17:20.015Z,99.90
2017-07-15T20:19:47.533Z,99.90
2017-07-15T20:22:15.313Z,99.90
2017-07-15T20:24:42.818Z,99.90
2017-07-15T20:27:10.327Z,99.90
2017-07-15T20:29:37.862Z,99.90
2017-07-15T20:32:05.381Z,99.90
2017-07-15T20:34:33.156Z,99.90
2017-07-15T20:37:06.236Z,99.90
2017-07-15T20:39:34.237Z,99.90
2017-07-15T20:42:01.731Z,99.90
2017-07-15T20:44:29.262Z,99.90
2017-07-15T20:46:56.774Z,99.90
2017-07-15T20:49:24.412Z,99.90
2017-07-15T20:51:52.217Z,99.90
2017-07-15T20:54:19.827Z,99.90
2017-07-15T20:56:47.351Z,99.90
2017-07-15T20:59:14.870Z,99.90
2017-07-15T21:01:42.373Z,99.90
2017-07-15T21:04:10.183Z,99.90
2017-07-15T21:06:37.850Z,99.90
2017-07-15T21:09:05.348Z,99.90
2017-07-15T21:11:33.034Z,99.90
2017-07-15T21:14:00.553Z,99.90
2017-07-15T21:16:28.540Z,99.90
2017-07-15T21:18:56.048Z,99.90
2017-07-15T21:21:23.562Z,99.90
2017-07-15T21:23:51.060Z,99.90
2017-07-15T21:26:18.591Z,99.90
2017-07-15T21:28:46.369Z,99.90
2017-07-15T21:31:13.883Z,99.90
2017-07-15T21:33:41.395Z,99.90
2017-07-15T21:36:08.937Z,99.90
2017-07-15T21:38:36.458Z,99.90
2017-07-15T21:41:04.336Z,99.90
2017-07-15T21:43:31.847Z,99.90
2017-07-15T21:45:59.340Z,99.90
2017-07-15T21:48:26.870Z,99.90
2017-07-15T21:50:54.369Z,99.90
2017-07-15T21:53:22.149Z,99.90
2017-07-15T21:55:49.657Z,99.90
2017-07-15T21:58:17.159Z,99.90
2017-07-15T22:00:44.856Z,99.90
2017-07-15T22:03:12.353Z,99.90
2017-07-15T22:05:40.137Z,99.90
2017-07-15T22:08:07.637Z,99.90
2017-07-15T22:10:35.128Z,99.90
2017-07-15T22:13:02.624Z,99.90
2017-07-15T22:15:30.113Z,99.90
2017-07-15T22:17:57.897Z,99.90
2017-07-15T22:20:25.397Z,99.90
2017-07-15T22:22:52.893Z,99.90
2017-07-15T22:25:20.445Z,99.90
2017-07-15T22:27:47.943Z,99.90
2017-07-15T22:30:15.737Z,99.90
2017-07-15T22:32:43.228Z,99.90
2017-07-15T22:35:10.724Z,99.90
2017-07-15T22:37:38.240Z,99.90
2017-07-15T22:40:05.742Z,99.90
2017-07-15T22:42:33.554Z,99.90
2017-07-15T22:47:55.470Z,99.90
2017-07-15T22:50:22.971Z,99.90
2017-07-15T22:52:50.474Z,99.90
2017-07-15T22:55:17.988Z,99.90
2017-07-15T22:57:45.640Z,99.90
2017-07-15T23:00:13.425Z,99.90
2017-07-15T23:02:40.927Z,99.90
2017-07-15T23:05:08.470Z,99.90
2017-07-15T23:07:35.973Z,99.90
2017-07-15T23:10:03.472Z,99.90
2017-07-15T23:12:31.260Z,99.90
2017-07-15T23:14:58.753Z,99.90
2017-07-15T23:17:26.256Z,99.90
2017-07-15T23:19:53.785Z,99.90
2017-07-15T23:22:21.274Z,99.90
2017-07-15T23:24:49.090Z,99.90
2017-07-15T23:27:16.590Z,99.90
2017-07-15T23:29:44.086Z,99.90
2017-07-15T23:32:11.594Z,99.90
2017-07-15T23:34:39.274Z,99.90
2017-07-15T23:37:07.053Z,99.90
2017-07-15T23:39:34.632Z,99.90
2017-07-15T23:42:02.144Z,99.90
2017-07-15T23:44:29.648Z,99.90
2017-07-15T23:46:57.150Z,99.90
2017-07-15T23:49:24.925Z,99.90
2017-07-15T23:51:52.422Z,99.90
2017-07-15T23:54:20.068Z,99.90
2017-07-15T23:56:47.752Z,99.90
2017-07-15T23:59:15.247Z,99.90
